Time;durP1;ratioP1;P1;durP2;ratioP2;P2;SDS_P1;SDS_P2;PMS_P1;PMS_P2;Temp;Humidity;BMP_temperature;BMP_pressure;BME280_temperature;BME280_humidity;BME280_pressure;Samples;Min_cycle;Max_cycle;Signal;HPM_P1;HPM_P2
2021/12/13 00:00:02;;;;;;;20.70;10.45;;;10.40;99.90;;;;;;5091085;28;20040;-83
2021/12/13 00:02:33;;;;;;;20.80;9.45;;;10.40;99.90;;;;;;5086987;28;20028;-83
2021/12/13 00:05:13;;;;;;;12.75;9.27;;;10.40;99.90;;;;;;5094531;28;20119;-83
2021/12/13 00:07:50;;;;;;;18.38;10.10;;;10.30;99.90;;;;;;5095251;28;20050;-83
2021/12/13 00:10:19;;;;;;;16.25;8.95;;;10.30;99.90;;;;;;5094352;28;20028;-83
2021/12/13 00:12:49;;;;;;;19.10;9.77;;;10.30;99.90;;;;;;5094917;28;20028;-83
2021/12/13 00:15:32;;;;;;;19.27;8.77;;;10.30;99.90;;;;;;5094527;28;20347;-82
2021/12/13 00:17:59;;;;;;;15.32;8.05;;;10.30;99.90;;;;;;5093828;28;20354;-82
2021/12/13 00:20:36;;;;;;;11.90;7.80;;;10.30;99.90;;;;;;5094120;28;20020;-84
2021/12/13 00:23:15;;;;;;;15.90;6.90;;;10.30;99.90;;;;;;5094694;28;20020;-84
2021/12/13 00:25:46;;;;;;;15.15;7.35;;;10.40;99.90;;;;;;5094343;28;20043;-83
2021/12/13 00:28:14;;;;;;;;;;;10.40;99.90;;;;;;5093217;28;20043;-83
2021/12/13 00:31:11;;;;;;;13.20;6.53;;;10.30;99.90;;;;;;5093926;28;20341;-83
2021/12/13 00:34:14;;;;;;;8.75;6.93;;;10.30;99.90;;;;;;5093536;28;20106;-82
2021/12/13 00:36:56;;;;;;;13.05;5.63;;;10.30;99.90;;;;;;5097924;28;20092;-83
2021/12/13 00:39:30;;;;;;;10.80;4.82;;;10.30;99.90;;;;;;5096851;28;20113;-83
2021/12/13 00:41:57;;;;;;;8.18;5.10;;;10.30;99.90;;;;;;5097995;28;20102;-83
2021/12/13 00:44:26;;;;;;;7.90;4.72;;;10.20;99.90;;;;;;5098453;28;20024;-84
2021/12/13 00:46:55;;;;;;;12.55;5.18;;;10.20;99.90;;;;;;5101766;28;20065;-83
2021/12/13 00:49:25;;;;;;;8.20;4.60;;;10.20;99.90;;;;;;5096743;28;20049;-83
2021/12/13 00:51:56;;;;;;;10.68;5.15;;;10.10;99.90;;;;;;5096778;28;20028;-83
2021/12/13 00:54:32;;;;;;;8.68;4.10;;;10.10;99.90;;;;;;5096727;28;20031;-83
2021/12/13 00:57:00;;;;;;;8.27;4.53;;;10.10;99.90;;;;;;5100874;28;20028;-84
2021/12/13 00:59:47;;;;;;;12.15;4.05;;;10.20;99.90;;;;;;5096799;28;20024;-83
2021/12/13 01:02:40;;;;;;;9.13;3.90;;;10.20;99.90;;;;;;5095852;28;20028;-82
2021/12/13 01:05:16;;;;;;;5.72;3.70;;;10.10;99.90;;;;;;5096530;28;20020;-83
2021/12/13 01:08:11;;;;;;;6.57;3.05;;;10.10;99.90;;;;;;5095424;28;20059;-83
2021/12/13 01:11:07;;;;;;;7.13;3.70;;;10.20;99.90;;;;;;5096154;28;20032;-83
2021/12/13 01:13:38;;;;;;;7.53;4.68;;;10.10;99.90;;;;;;5096957;28;20028;-83
2021/12/13 01:16:37;;;;;;;5.40;3.92;;;10.10;99.90;;;;;;5107932;28;20028;-83
2021/12/13 01:22:00;;;;;;;9.85;4.45;;;10.10;99.90;;;;;;5097193;28;20085;-83
2021/12/13 01:27:36;;;;;;;6.87;4.67;;;10.10;99.90;;;;;;5096046;28;20059;-83
2021/12/13 01:30:05;;;;;;;7.22;4.55;;;10.20;99.90;;;;;;5095365;28;20028;-83
2021/12/13 01:32:41;;;;;;;16.65;6.60;;;10.10;99.90;;;;;;5096798;28;20058;-83
2021/12/13 01:35:12;;;;;;;8.77;5.40;;;10.10;99.90;;;;;;5096762;28;20020;-83
2021/12/13 01:37:37;;;;;;;;;;;10.10;99.90;;;;;;5097043;28;20028;-83
2021/12/13 01:40:11;;;;;;;7.57;5.05;;;10.10;99.90;;;;;;5096123;28;19957;-82
2021/12/13 01:42:38;;;;;;;8.80;6.10;;;10.10;99.90;;;;;;5096318;28;20020;-83
2021/12/13 01:45:13;;;;;;;10.27;6.05;;;10.10;99.90;;;;;;5096494;28;20031;-83
2021/12/13 01:47:44;;;;;;;9.85;6.03;;;10.10;99.90;;;;;;5095528;28;20039;-83
2021/12/13 01:50:29;;;;;;;11.27;6.68;;;10.00;99.90;;;;;;5095505;28;20365;-84
2021/12/13 01:52:56;;;;;;;10.57;6.78;;;10.10;99.90;;;;;;5097063;28;20024;-83
2021/12/13 01:55:32;;;;;;;11.57;6.60;;;10.10;99.90;;;;;;5096808;28;20020;-84
2021/12/13 02:01:10;;;;;;;11.75;7.03;;;10.10;99.90;;;;;;5090332;28;20040;-83
2021/12/13 02:03:59;;;;;;;13.18;7.18;;;10.00;99.90;;;;;;5096851;28;20036;-82
2021/12/13 02:06:30;;;;;;;9.77;7.38;;;9.90;99.90;;;;;;5096813;28;20047;-83
2021/12/13 02:09:02;;;;;;;15.55;8.35;;;9.90;99.90;;;;;;5096742;28;20020;-83
2021/12/13 02:11:30;;;;;;;11.57;8.50;;;9.90;99.90;;;;;;5096080;28;20016;-83
2021/12/13 02:14:34;;;;;;;20.25;10.32;;;9.90;99.90;;;;;;5096369;28;20064;-83
2021/12/13 02:17:01;;;;;;;11.82;9.13;;;9.90;99.90;;;;;;5094656;28;20120;-84
2021/12/13 02:19:43;;;;;;;15.40;10.43;;;9.90;99.90;;;;;;5095455;28;20024;-83
2021/12/13 02:22:30;;;;;;;14.55;9.65;;;9.90;99.90;;;;;;5095508;28;20066;-83
2021/12/13 02:25:02;;;;;;;15.93;9.68;;;9.90;99.90;;;;;;5095745;28;20036;-83
2021/12/13 02:27:32;;;;;;;17.10;11.43;;;9.90;99.90;;;;;;5096244;28;20060;-84
2021/12/13 02:30:00;;;;;;;;;;;9.90;99.90;;;;;;5098015;28;20115;-82
2021/12/13 02:32:28;;;;;;;12.57;9.63;;;9.90;99.90;;;;;;5095785;28;19910;-83
2021/12/13 02:34:58;;;;;;;19.05;10.63;;;9.90;99.90;;;;;;5095945;28;20388;-83
2021/12/13 02:37:26;;;;;;;18.10;10.95;;;10.00;99.90;;;;;;5095484;28;20080;-84
2021/12/13 02:39:56;;;;;;;14.52;10.75;;;10.00;99.90;;;;;;5094179;28;20035;-84
2021/12/13 02:42:23;;;;;;;11.98;10.05;;;10.00;99.90;;;;;;5095567;28;20025;-84
2021/12/13 02:44:58;;;;;;;13.18;10.32;;;10.00;99.90;;;;;;5095906;28;20036;-84
2021/12/13 02:47:30;;;;;;;17.45;11.07;;;10.00;99.90;;;;;;5103263;28;20539;-83
2021/12/13 02:49:56;;;;;;;16.05;11.63;;;10.00;99.90;;;;;;5099580;28;20073;-84
2021/12/13 02:52:24;;;;;;;21.60;12.40;;;10.00;99.90;;;;;;5095184;28;20111;-83
2021/12/13 02:54:54;;;;;;;15.52;12.25;;;10.00;99.90;;;;;;5094535;28;20031;-83
2021/12/13 02:57:34;;;;;;;16.50;11.95;;;10.00;99.90;;;;;;5094290;28;20479;-84
2021/12/13 03:00:20;;;;;;;20.70;12.63;;;10.00;99.90;;;;;;5096869;28;20032;-83
2021/12/13 03:02:53;;;;;;;16.95;13.18;;;10.00;99.90;;;;;;5094687;28;20045;-83
2021/12/13 03:05:30;;;;;;;22.48;13.27;;;10.00;99.90;;;;;;5093613;28;20028;-84
2021/12/13 03:08:00;;;;;;;15.15;13.52;;;10.00;99.90;;;;;;5093720;28;20116;-83
2021/12/13 03:10:31;;;;;;;16.60;12.50;;;10.00;99.90;;;;;;5097176;28;20501;-84
2021/12/13 03:12:57;;;;;;;18.48;13.30;;;10.00;99.90;;;;;;5094472;28;20137;-84
2021/12/13 03:15:27;;;;;;;15.75;12.48;;;9.90;99.90;;;;;;5093039;28;20528;-84
2021/12/13 03:18:03;;;;;;;19.10;12.52;;;10.00;99.90;;;;;;5094250;28;20047;-84
2021/12/13 03:21:04;;;;;;;17.50;13.57;;;9.90;99.90;;;;;;5094798;28;20024;-85
2021/12/13 03:23:51;;;;;;;20.98;13.40;;;10.00;99.90;;;;;;5087299;28;20042;-83
2021/12/13 03:26:26;;;;;;;17.65;11.65;;;10.00;99.90;;;;;;5093524;28;20470;-83
2021/12/13 03:29:14;;;;;;;13.40;12.02;;;10.00;99.90;;;;;;5093974;28;20024;-84
2021/12/13 03:31:44;;;;;;;17.85;13.07;;;9.90;99.90;;;;;;5093983;28;20141;-84
2021/12/13 03:34:42;;;;;;;16.48;13.32;;;9.90;99.90;;;;;;5094444;28;20056;-83
2021/12/13 03:37:21;;;;;;;15.35;11.80;;;9.90;99.90;;;;;;5093653;28;20030;-83
2021/12/13 03:39:55;;;;;;;15.57;12.30;;;10.00;99.90;;;;;;5094330;28;20398;-84
2021/12/13 03:42:31;;;;;;;21.10;13.95;;;9.90;99.90;;;;;;5094646;28;20361;-83
2021/12/13 03:45:03;;;;;;;20.17;13.98;;;9.90;99.90;;;;;;5095722;28;20026;-83
2021/12/13 03:47:37;;;;;;;17.77;13.45;;;9.90;99.90;;;;;;5095103;28;20086;-82
2021/12/13 03:50:09;;;;;;;17.58;13.38;;;9.90;99.90;;;;;;5097059;28;20486;-82
2021/12/13 03:52:40;;;;;;;20.45;15.68;;;9.90;99.90;;;;;;5098184;28;20038;-81
2021/12/13 03:55:08;;;;;;;21.77;14.15;;;9.90;99.90;;;;;;5097471;28;20048;-81
2021/12/13 03:57:38;;;;;;;20.30;13.48;;;10.00;99.90;;;;;;5097019;28;20067;-81
2021/12/13 04:00:05;;;;;;;25.52;13.25;;;10.00;99.90;;;;;;5096955;28;20051;-81
2021/12/13 04:02:35;;;;;;;18.73;15.27;;;9.90;99.90;;;;;;5095900;28;20032;-82
2021/12/13 04:05:08;;;;;;;16.65;14.77;;;10.00;99.90;;;;;;5096202;28;20097;-82
2021/12/13 04:07:38;;;;;;;21.15;13.95;;;9.90;99.90;;;;;;5096105;28;20039;-82
2021/12/13 04:10:20;;;;;;;19.38;14.73;;;9.90;99.90;;;;;;5096330;28;20017;-82
2021/12/13 04:12:51;;;;;;;17.70;13.85;;;9.90;99.90;;;;;;5097347;28;20035;-82
2021/12/13 04:15:17;;;;;;;;;;;9.90;99.90;;;;;;5097978;28;20024;-81
2021/12/13 04:20:33;;;;;;;19.20;14.15;;;9.90;99.90;;;;;;5098728;28;20031;-82
2021/12/13 04:23:13;;;;;;;17.55;12.35;;;9.90;99.90;;;;;;5096563;28;20020;-82
2021/12/13 04:25:44;;;;;;;21.13;14.55;;;9.90;99.90;;;;;;5095719;28;20039;-82
2021/12/13 04:28:37;;;;;;;18.48;14.55;;;9.90;99.90;;;;;;5095506;28;20059;-81
2021/12/13 04:31:10;;;;;;;19.98;13.45;;;9.90;99.90;;;;;;5084474;28;20043;-81
2021/12/13 04:33:43;;;;;;;18.60;14.27;;;9.90;99.90;;;;;;5093916;28;20425;-81
2021/12/13 04:36:19;;;;;;;17.23;13.70;;;9.80;99.90;;;;;;5094653;28;20024;-84
2021/12/13 04:38:57;;;;;;;19.42;15.00;;;9.90;99.90;;;;;;5093542;28;20024;-82
2021/12/13 04:41:48;;;;;;;17.77;13.82;;;9.80;99.90;;;;;;5094821;28;20062;-82
2021/12/13 04:44:17;;;;;;;;;;;9.80;99.90;;;;;;5086058;28;20032;-80
2021/12/13 04:46:48;;;;;;;22.63;14.70;;;9.80;99.90;;;;;;5094624;28;19920;-82
2021/12/13 04:49:16;;;;;;;18.67;14.45;;;9.80;99.90;;;;;;5096020;28;20069;-83
2021/12/13 04:51:45;;;;;;;21.13;15.05;;;9.70;99.90;;;;;;5095585;28;20087;-82
2021/12/13 04:54:13;;;;;;;18.53;13.30;;;9.90;99.90;;;;;;5094122;28;20043;-82
2021/12/13 04:56:39;;;;;;;21.23;14.23;;;9.90;99.90;;;;;;5094651;28;20078;-82
2021/12/13 04:59:08;;;;;;;19.40;14.45;;;9.90;99.90;;;;;;5094090;28;20028;-81
2021/12/13 05:01:34;;;;;;;18.23;14.75;;;9.90;99.90;;;;;;5094857;28;20059;-82
2021/12/13 05:04:03;;;;;;;22.33;14.63;;;9.90;99.90;;;;;;5097100;28;20028;-81
2021/12/13 05:06:34;;;;;;;21.35;14.13;;;9.90;99.90;;;;;;5098565;28;20523;-80
2021/12/13 05:09:04;;;;;;;15.38;13.13;;;10.00;99.90;;;;;;5109752;28;20024;-80
2021/12/13 05:11:33;;;;;;;20.17;13.25;;;10.00;99.90;;;;;;5104304;28;20024;-82
2021/12/13 05:14:02;;;;;;;18.48;13.75;;;9.90;99.90;;;;;;5096517;28;20620;-81
2021/12/13 05:16:40;;;;;;;17.63;13.68;;;10.00;99.90;;;;;;5095664;28;20039;-82
2021/12/13 05:19:08;;;;;;;17.48;12.45;;;9.90;99.90;;;;;;5096782;28;20028;-80
2021/12/13 05:21:39;;;;;;;16.77;13.10;;;9.90;99.90;;;;;;5099449;28;20026;-82
2021/12/13 05:24:13;;;;;;;14.93;13.43;;;9.90;99.90;;;;;;5099839;28;20031;-82
2021/12/13 05:26:59;;;;;;;22.77;14.25;;;9.90;99.90;;;;;;5099389;28;20039;-83
2021/12/13 05:29:25;;;;;;;20.63;13.13;;;9.80;99.90;;;;;;5098757;28;20024;-81
2021/12/13 05:31:58;;;;;;;21.83;14.23;;;9.80;99.90;;;;;;5098785;28;20035;-81
2021/12/13 05:34:31;;;;;;;17.08;13.85;;;9.90;99.90;;;;;;5098548;28;20536;-83
2021/12/13 05:36:59;;;;;;;18.65;13.50;;;9.90;99.90;;;;;;5098805;28;20024;-82
2021/12/13 05:39:26;;;;;;;21.08;13.60;;;9.80;99.90;;;;;;5098169;28;20023;-82
2021/12/13 05:41:59;;;;;;;19.13;14.88;;;9.80;99.90;;;;;;5098662;28;20039;-80
2021/12/13 05:44:34;;;;;;;21.80;14.70;;;9.80;99.90;;;;;;5098131;28;20024;-81
2021/12/13 05:47:06;;;;;;;23.08;14.80;;;9.80;99.90;;;;;;5097543;28;20051;-81
2021/12/13 05:49:40;;;;;;;17.05;14.63;;;9.80;99.90;;;;;;5097670;28;20031;-81
2021/12/13 05:52:11;;;;;;;18.92;14.63;;;9.80;99.90;;;;;;5094910;28;20060;-82
2021/12/13 05:54:42;;;;;;;22.60;15.27;;;9.80;99.90;;;;;;5086859;28;20032;-81
2021/12/13 05:57:17;;;;;;;19.15;15.02;;;9.80;99.90;;;;;;5079592;28;20032;-82
2021/12/13 05:59:57;;;;;;;21.08;15.57;;;9.80;99.90;;;;;;5079504;28;20050;-82
2021/12/13 06:03:00;;;;;;;26.27;18.07;;;9.90;99.90;;;;;;5078481;28;20471;-82
2021/12/13 06:05:38;;;;;;;26.60;15.32;;;9.90;99.90;;;;;;5077721;28;20043;-82
2021/12/13 06:08:08;;;;;;;23.83;15.45;;;9.90;99.90;;;;;;5077444;28;20044;-81
2021/12/13 06:10:57;;;;;;;36.28;18.40;;;9.90;99.90;;;;;;5079082;28;20120;-81
2021/12/13 06:13:41;;;;;;;24.30;17.77;;;9.80;99.90;;;;;;5087926;28;20067;-81
2021/12/13 06:16:06;;;;;;;21.13;15.95;;;9.90;99.90;;;;;;5086512;28;20039;-81
2021/12/13 06:18:41;;;;;;;28.40;16.52;;;9.80;99.90;;;;;;5081883;28;20388;-80
2021/12/13 06:21:38;;;;;;;23.77;17.52;;;9.80;99.90;;;;;;5090041;28;20074;-82
2021/12/13 06:24:04;;;;;;;24.65;17.25;;;9.80;99.90;;;;;;5090540;28;20024;-80
2021/12/13 06:26:30;;;;;;;25.92;16.83;;;9.80;99.90;;;;;;5088916;28;20033;-80
2021/12/13 06:29:00;;;;;;;25.25;17.45;;;9.80;99.90;;;;;;5090663;28;20438;-81
2021/12/13 06:31:36;;;;;;;26.05;17.65;;;9.80;99.90;;;;;;5090027;28;20020;-80
2021/12/13 06:34:05;;;;;;;27.70;17.65;;;9.80;99.90;;;;;;5087080;28;20020;-80
2021/12/13 06:36:35;;;;;;;26.63;17.00;;;9.80;99.90;;;;;;5088499;28;20033;-80
2021/12/13 06:39:07;;;;;;;27.15;18.00;;;9.80;99.90;;;;;;5086391;28;20028;-80
2021/12/13 06:41:49;;;;;;;25.60;17.77;;;9.70;99.90;;;;;;5087581;28;20044;-80
2021/12/13 06:44:30;;;;;;;28.27;17.42;;;9.70;99.90;;;;;;5112066;28;20055;-80
2021/12/13 06:47:31;;;;;;;28.60;17.92;;;9.70;99.90;;;;;;5101683;28;20056;-80
2021/12/13 06:49:59;;;;;;;32.42;19.33;;;9.70;99.90;;;;;;5050804;28;20017;-80
2021/12/13 06:52:34;;;;;;;30.33;19.25;;;9.80;99.90;;;;;;5092205;28;20024;-80
2021/12/13 06:55:14;;;;;;;26.95;17.00;;;9.80;99.90;;;;;;5101875;28;20501;-80
2021/12/13 06:57:46;;;;;;;31.92;19.85;;;9.70;99.90;;;;;;5098425;28;20084;-81
2021/12/13 07:00:20;;;;;;;28.05;19.50;;;9.70;99.90;;;;;;5103640;28;20043;-81
2021/12/13 07:02:53;;;;;;;32.92;21.02;;;9.70;99.90;;;;;;5099432;28;20035;-80
2021/12/13 07:05:32;;;;;;;31.95;19.98;;;9.80;99.90;;;;;;5091851;28;20020;-80
2021/12/13 07:08:19;;;;;;;30.17;19.67;;;9.80;99.90;;;;;;5094178;28;20035;-80
2021/12/13 07:10:55;;;;;;;31.00;19.90;;;9.80;99.90;;;;;;5088781;28;20521;-82
2021/12/13 07:13:48;;;;;;;33.17;19.85;;;9.80;99.90;;;;;;5083999;28;20473;-80
2021/12/13 07:16:22;;;;;;;37.17;19.75;;;9.80;99.90;;;;;;5087211;28;20190;-80
2021/12/13 07:18:50;;;;;;;30.67;19.75;;;9.80;99.90;;;;;;5081159;28;20035;-80
2021/12/13 07:21:20;;;;;;;30.60;19.33;;;9.80;99.90;;;;;;5088351;28;20487;-82
2021/12/13 07:23:56;;;;;;;33.53;19.92;;;9.80;99.90;;;;;;5104135;28;20028;-81
2021/12/13 07:26:31;;;;;;;35.13;18.98;;;9.70;99.90;;;;;;5093126;28;20152;-82
2021/12/13 07:28:58;;;;;;;27.95;18.75;;;9.80;99.90;;;;;;5085589;28;20036;-81
2021/12/13 07:31:24;;;;;;;32.58;18.65;;;9.80;99.90;;;;;;5073964;28;20127;-81
2021/12/13 07:33:50;;;;;;;32.05;18.35;;;9.80;99.90;;;;;;5079901;28;20523;-80
2021/12/13 07:36:20;;;;;;;30.95;18.80;;;9.80;99.90;;;;;;5072286;28;20107;-80
2021/12/13 07:38:49;;;;;;;32.67;18.83;;;9.70;99.90;;;;;;5077709;28;20518;-79
2021/12/13 07:41:16;;;;;;;35.20;19.02;;;9.80;99.90;;;;;;5072552;28;20438;-83
2021/12/13 07:43:46;;;;;;;29.15;17.65;;;9.70;99.90;;;;;;5074505;28;20049;-82
2021/12/13 07:46:27;;;;;;;28.95;18.05;;;9.70;99.90;;;;;;5072999;28;20051;-78
2021/12/13 07:49:08;;;;;;;33.40;18.35;;;9.70;99.90;;;;;;5073588;28;20025;-80
2021/12/13 07:52:02;;;;;;;30.35;18.48;;;9.70;99.90;;;;;;5073955;28;20246;-80
2021/12/13 07:54:37;;;;;;;34.72;19.48;;;9.80;99.90;;;;;;5073275;28;20055;-80
2021/12/13 07:57:17;;;;;;;30.27;17.52;;;9.80;99.90;;;;;;5074415;28;20427;-81
2021/12/13 07:59:43;;;;;;;38.70;18.20;;;9.80;99.90;;;;;;5076843;28;20024;-81
2021/12/13 08:02:32;;;;;;;27.80;17.58;;;9.80;99.90;;;;;;5074615;28;20358;-81
2021/12/13 08:05:08;;;;;;;31.27;18.23;;;9.80;99.90;;;;;;5084128;28;20028;-81
2021/12/13 08:07:58;;;;;;;28.77;17.05;;;9.80;99.90;;;;;;5089902;28;20036;-78
2021/12/13 08:10:26;;;;;;;29.63;17.37;;;9.80;99.90;;;;;;5085728;28;20450;-79
2021/12/13 08:13:01;;;;;;;30.63;18.13;;;9.80;99.90;;;;;;5074633;28;20020;-82
2021/12/13 08:15:56;;;;;;;28.00;17.20;;;9.80;99.90;;;;;;5075008;28;20530;-80
2021/12/13 08:18:35;;;;;;;27.73;16.65;;;9.70;99.90;;;;;;5074320;28;20045;-80
2021/12/13 08:21:06;;;;;;;29.38;16.40;;;9.80;99.90;;;;;;5075649;28;20468;-81
2021/12/13 08:23:41;;;;;;;30.55;16.88;;;9.80;99.90;;;;;;5075848;28;20162;-81
2021/12/13 08:26:12;;;;;;;25.75;16.05;;;9.70;99.90;;;;;;5076195;28;20040;-82
2021/12/13 08:28:42;;;;;;;30.98;17.08;;;9.80;99.90;;;;;;5076094;28;20066;-80
2021/12/13 08:31:17;;;;;;;31.88;16.52;;;9.90;99.90;;;;;;5075179;28;20082;-81
2021/12/13 08:33:46;;;;;;;35.88;17.65;;;9.90;99.90;;;;;;5075867;28;20039;-77
2021/12/13 08:36:28;;;;;;;30.48;16.40;;;9.90;99.90;;;;;;5074422;28;20032;-80
2021/12/13 08:39:09;;;;;;;31.55;17.05;;;9.90;99.90;;;;;;5073331;28;20026;-78
2021/12/13 08:41:46;;;;;;;32.83;17.20;;;9.80;99.90;;;;;;5073363;28;20472;-80
2021/12/13 08:44:12;;;;;;;30.88;15.38;;;9.80;99.90;;;;;;5072718;28;20040;-80
2021/12/13 08:47:04;;;;;;;25.77;16.38;;;9.90;99.90;;;;;;5072439;28;20048;-77
2021/12/13 08:49:29;;;;;;;27.77;17.02;;;9.90;99.90;;;;;;5073019;28;20032;-77
2021/12/13 08:52:03;;;;;;;29.02;15.57;;;9.90;99.90;;;;;;5072725;28;20017;-77
2021/12/13 08:54:51;;;;;;;26.85;16.33;;;9.80;99.90;;;;;;5073308;28;20025;-77
2021/12/13 08:57:51;;;;;;;27.88;16.70;;;9.80;99.90;;;;;;5076817;28;20032;-78
2021/12/13 09:01:02;;;;;;;30.23;16.77;;;9.90;99.90;;;;;;5070220;28;20036;-80
2021/12/13 09:03:37;;;;;;;28.98;15.65;;;9.90;99.90;;;;;;5055138;28;20053;-79
2021/12/13 09:06:17;;;;;;;24.15;14.65;;;9.90;99.90;;;;;;5091573;28;20026;-78
2021/12/13 09:08:51;;;;;;;28.17;15.10;;;9.90;99.90;;;;;;5097380;28;20058;-79
2021/12/13 09:11:37;;;;;;;30.17;16.55;;;9.90;99.90;;;;;;5097182;28;20116;-79
2021/12/13 09:14:06;;;;;;;29.83;16.42;;;9.90;99.90;;;;;;5096765;28;20048;-79
2021/12/13 09:17:03;;;;;;;30.58;15.68;;;9.90;99.90;;;;;;5097199;28;20097;-78
2021/12/13 09:19:35;;;;;;;28.17;16.55;;;10.00;99.90;;;;;;5097211;28;20056;-80
2021/12/13 09:22:27;;;;;;;24.92;15.27;;;10.00;99.90;;;;;;5097007;28;20055;-79
2021/12/13 09:25:07;;;;;;;27.35;15.57;;;10.10;99.90;;;;;;5095998;28;20032;-79
2021/12/13 09:28:01;;;;;;;24.83;15.35;;;10.10;99.90;;;;;;5096105;28;20039;-79
2021/12/13 09:30:39;;;;;;;31.40;16.13;;;10.10;99.90;;;;;;5097574;28;20028;-79
2021/12/13 09:33:28;;;;;;;23.92;14.60;;;10.10;99.90;;;;;;5101283;28;20036;-79
2021/12/13 09:36:04;;;;;;;23.85;14.65;;;10.20;99.90;;;;;;5099263;28;20024;-79
2021/12/13 09:38:47;;;;;;;28.73;15.18;;;10.20;99.90;;;;;;5098087;28;20430;-80
2021/12/13 09:41:35;;;;;;;28.70;14.43;;;10.30;99.90;;;;;;5097490;28;20024;-79
2021/12/13 09:44:14;;;;;;;25.50;14.68;;;10.30;99.90;;;;;;5098532;28;20053;-79
2021/12/13 09:47:10;;;;;;;22.08;13.82;;;10.30;99.90;;;;;;5099881;28;20059;-80
2021/12/13 09:49:45;;;;;;;28.05;14.52;;;10.30;99.90;;;;;;5083708;28;20029;-78
2021/12/13 09:52:12;;;;;;;22.15;14.05;;;10.30;99.90;;;;;;5098915;28;20372;-78
2021/12/13 09:54:49;;;;;;;27.60;15.13;;;10.30;99.90;;;;;;5098167;28;20020;-79
2021/12/13 09:57:20;;;;;;;24.08;14.38;;;10.30;99.90;;;;;;5096776;28;20039;-79
2021/12/13 09:59:51;;;;;;;24.52;14.25;;;10.40;99.90;;;;;;5096762;28;20372;-80
2021/12/13 10:02:28;;;;;;;20.00;13.43;;;10.40;99.90;;;;;;5095271;28;20057;-78
2021/12/13 10:04:54;;;;;;;24.30;13.52;;;10.40;99.90;;;;;;5096050;28;20032;-80
2021/12/13 10:07:26;;;;;;;22.05;13.88;;;10.40;99.90;;;;;;5095247;28;20502;-79
2021/12/13 10:09:59;;;;;;;25.05;14.27;;;10.40;99.90;;;;;;5095627;28;20060;-80
2021/12/13 10:12:30;;;;;;;22.50;12.93;;;10.50;99.90;;;;;;5094015;28;20036;-77
2021/12/13 10:15:12;;;;;;;20.88;12.77;;;10.50;99.90;;;;;;5075137;28;20028;-77
2021/12/13 10:17:42;;;;;;;26.10;13.95;;;10.50;99.90;;;;;;5074705;28;20035;-77
2021/12/13 10:20:25;;;;;;;22.67;12.70;;;10.50;99.90;;;;;;5074467;28;20069;-75
2021/12/13 10:22:51;;;;;;;22.40;12.85;;;10.60;99.90;;;;;;5074171;28;20392;-78
2021/12/13 10:25:22;;;;;;;22.42;12.30;;;10.60;99.90;;;;;;5074694;28;20032;-79
2021/12/13 10:27:49;;;;;;;21.58;12.23;;;10.60;99.90;;;;;;5092580;28;20571;-77
2021/12/13 10:30:29;;;;;;;22.25;12.55;;;10.60;99.90;;;;;;5093781;28;20096;-78
2021/12/13 10:32:55;;;;;;;22.17;13.50;;;10.70;99.90;;;;;;5094504;28;20024;-76
2021/12/13 10:35:26;;;;;;;19.50;12.23;;;10.60;99.90;;;;;;5094134;28;20020;-76
2021/12/13 10:37:59;;;;;;;21.17;13.38;;;10.70;99.90;;;;;;5094384;28;20031;-76
2021/12/13 10:40:30;;;;;;;19.77;13.75;;;10.60;99.90;;;;;;5094587;28;20040;-76
2021/12/13 10:43:07;;;;;;;20.77;12.93;;;10.70;99.90;;;;;;5096674;28;20034;-75
2021/12/13 10:45:40;;;;;;;20.98;12.13;;;10.70;99.90;;;;;;5093484;28;20039;-77
2021/12/13 10:48:09;;;;;;;23.05;12.40;;;10.70;99.90;;;;;;5094211;28;20036;-75
2021/12/13 10:50:42;;;;;;;34.03;14.33;;;10.70;99.90;;;;;;5094175;28;20048;-76
2021/12/13 10:53:11;;;;;;;19.42;11.45;;;10.80;99.90;;;;;;5093372;28;20145;-77
2021/12/13 10:55:47;;;;;;;19.27;12.35;;;10.80;99.90;;;;;;5095184;28;20026;-77
2021/12/13 10:58:29;;;;;;;21.67;12.70;;;10.80;99.90;;;;;;5084174;28;20016;-77
2021/12/13 11:01:04;;;;;;;19.65;10.95;;;10.80;99.90;;;;;;5074124;28;20025;-79
2021/12/13 11:03:31;;;;;;;21.30;12.27;;;11.30;99.90;;;;;;5074119;28;20024;-78
2021/12/13 11:05:59;;;;;;;21.85;11.95;;;10.70;99.90;;;;;;5073925;28;20031;-79
2021/12/13 11:08:26;;;;;;;25.05;12.38;;;10.80;99.90;;;;;;5073712;28;20052;-78
2021/12/13 11:11:22;;;;;;;22.38;12.20;;;10.80;99.90;;;;;;5074848;28;20112;-78
2021/12/13 11:13:52;;;;;;;22.70;11.82;;;10.70;99.90;;;;;;5088072;28;20039;-77
2021/12/13 11:16:29;;;;;;;22.55;12.07;;;10.80;99.90;;;;;;5093932;28;20486;-76
2021/12/13 11:18:56;;;;;;;25.95;12.73;;;10.80;99.90;;;;;;5094671;28;20066;-78
2021/12/13 11:21:25;;;;;;;22.23;11.88;;;10.90;99.90;;;;;;5093991;28;20028;-78
2021/12/13 11:23:52;;;;;;;21.63;12.23;;;10.90;99.90;;;;;;5094089;28;20032;-78
2021/12/13 11:26:22;;;;;;;22.17;12.32;;;10.90;99.90;;;;;;5093282;28;20024;-77
2021/12/13 11:28:49;;;;;;;25.65;13.13;;;11.00;99.90;;;;;;5093871;28;20027;-77
2021/12/13 11:32:06;;;;;;;21.45;10.90;;;11.00;99.90;;;;;;5093032;28;20021;-78
2021/12/13 11:35:06;;;;;;;20.92;10.82;;;10.90;99.90;;;;;;5093437;28;20512;-78
2021/12/13 11:38:10;;;;;;;21.02;11.45;;;10.90;99.90;;;;;;5093651;28;20476;-77
2021/12/13 11:40:54;;;;;;;20.45;11.38;;;11.00;99.90;;;;;;5092708;28;20039;-79
2021/12/13 11:43:27;;;;;;;21.30;11.15;;;11.00;99.90;;;;;;5093834;28;20220;-79
2021/12/13 11:46:17;;;;;;;20.60;11.13;;;11.00;99.90;;;;;;5093635;28;20063;-77
2021/12/13 11:49:26;;;;;;;26.98;12.32;;;11.00;99.90;;;;;;5093347;28;20140;-77
2021/12/13 11:52:29;;;;;;;17.35;11.40;;;10.90;99.90;;;;;;5093772;28;20035;-78
2021/12/13 11:55:29;;;;;;;24.40;12.30;;;11.00;99.90;;;;;;5093996;28;20032;-79
2021/12/13 11:58:52;;;;;;;25.55;11.25;;;11.00;99.90;;;;;;5094139;28;20036;-78
2021/12/13 12:01:40;;;;;;;20.80;11.73;;;11.00;99.90;;;;;;5031440;28;20573;-78
2021/12/13 12:04:43;;;;;;;20.08;11.05;;;11.00;99.90;;;;;;5031384;28;20037;-78
2021/12/13 12:07:21;;;;;;;22.30;10.80;;;11.00;99.90;;;;;;5085316;28;20036;-77
2021/12/13 12:10:20;;;;;;;22.40;10.88;;;11.00;99.90;;;;;;5093674;28;20430;-77
2021/12/13 12:12:58;;;;;;;16.83;10.65;;;11.00;99.90;;;;;;5094055;28;20028;-77
2021/12/13 12:15:25;;;;;;;21.27;11.48;;;11.00;99.90;;;;;;5093799;28;20035;-77
2021/12/13 12:17:52;;;;;;;18.52;10.05;;;11.00;99.90;;;;;;5094216;28;20028;-78
2021/12/13 12:20:27;;;;;;;19.90;11.57;;;11.00;99.90;;;;;;5093065;28;20464;-78
2021/12/13 12:23:00;;;;;;;16.42;9.88;;;11.00;99.90;;;;;;5091423;28;20024;-78
2021/12/13 12:25:28;;;;;;;24.10;11.27;;;11.00;99.90;;;;;;5093308;28;20027;-78
2021/12/13 12:28:04;;;;;;;18.58;11.23;;;11.00;99.90;;;;;;5093292;28;20047;-77
2021/12/13 12:30:34;;;;;;;17.65;11.10;;;11.00;99.90;;;;;;5093172;28;20380;-77
2021/12/13 12:33:06;;;;;;;;;;;11.00;99.90;;;;;;5098023;28;20105;-77
2021/12/13 12:35:36;;;;;;;19.60;10.38;;;11.00;99.90;;;;;;5097605;28;19904;-77
2021/12/13 12:38:20;;;;;;;21.95;10.73;;;11.10;99.90;;;;;;5096873;28;20099;-78
2021/12/13 12:41:13;;;;;;;16.65;10.07;;;11.10;99.90;;;;;;5097368;28;20028;-78
2021/12/13 12:43:52;;;;;;;18.30;10.40;;;11.00;99.90;;;;;;5097016;28;20084;-79
2021/12/13 12:46:21;;;;;;;14.48;10.10;;;11.00;99.90;;;;;;5097122;28;20103;-78
2021/12/13 12:48:48;;;;;;;16.73;10.60;;;11.00;99.90;;;;;;5097479;28;20068;-78
2021/12/13 12:51:24;;;;;;;17.98;10.60;;;10.90;99.90;;;;;;5096694;28;20102;-79
2021/12/13 12:54:04;;;;;;;22.48;10.50;;;10.90;99.90;;;;;;5097310;28;20028;-77
2021/12/13 12:56:40;;;;;;;15.53;10.00;;;10.90;99.90;;;;;;5097700;28;20411;-76
2021/12/13 12:59:18;;;;;;;21.02;10.00;;;10.90;99.90;;;;;;5096231;28;20039;-77
2021/12/13 13:02:00;;;;;;;18.08;10.77;;;10.90;99.90;;;;;;5097042;28;20036;-77
2021/12/13 13:04:45;;;;;;;17.33;9.90;;;10.90;99.90;;;;;;5096926;28;20114;-77
2021/12/13 13:07:24;;;;;;;15.45;9.75;;;10.90;99.90;;;;;;5096933;28;20388;-78
2021/12/13 13:09:55;;;;;;;17.30;10.68;;;10.80;99.90;;;;;;5097353;28;20077;-78
2021/12/13 13:12:28;;;;;;;18.10;10.48;;;10.80;99.90;;;;;;5096143;28;20024;-79
2021/12/13 13:14:59;;;;;;;18.30;9.70;;;10.80;99.90;;;;;;5097585;28;20032;-79
2021/12/13 13:17:27;;;;;;;;;;;10.80;99.90;;;;;;5097506;28;20031;-77
2021/12/13 13:19:57;;;;;;;15.13;9.25;;;10.80;99.90;;;;;;5096529;28;20352;-79
2021/12/13 13:22:36;;;;;;;14.10;9.57;;;10.80;99.90;;;;;;5096760;28;20337;-78
2021/12/13 13:25:11;;;;;;;17.73;9.93;;;10.70;99.90;;;;;;5097194;28;20115;-78
2021/12/13 13:27:38;;;;;;;13.93;9.45;;;10.80;99.90;;;;;;5096584;28;20032;-78
2021/12/13 13:30:20;;;;;;;18.02;10.45;;;10.70;99.90;;;;;;5098453;28;20038;-79
2021/12/13 13:32:46;;;;;;;17.90;9.95;;;10.60;99.90;;;;;;5101917;28;20028;-79